sensor_id;sensor_type;location;lat;lon;timestamp;P1;durP1;ratioP1;P2;durP2;ratioP2
61085;SDS011;46967;48.876;2.136;2024-02-21T00:00:28;13.80;;;4.00;;
61085;SDS011;46967;48.876;2.136;2024-02-21T00:02:53;13.50;;;4.88;;
61085;SDS011;46967;48.876;2.136;2024-02-21T00:05:18;14.77;;;4.18;;
61085;SDS011;46967;48.876;2.136;2024-02-21T00:07:44;11.27;;;3.95;;
61085;SDS011;46967;48.876;2.136;2024-02-21T00:10:09;15.13;;;3.78;;
61085;SDS011;46967;48.876;2.136;2024-02-21T00:12:34;11.38;;;3.83;;
61085;SDS011;46967;48.876;2.136;2024-02-21T00:15:00;11.48;;;3.50;;
61085;SDS011;46967;48.876;2.136;2024-02-21T00:17:25;16.50;;;4.00;;
61085;SDS011;46967;48.876;2.136;2024-02-21T00:19:51;13.48;;;4.10;;
61085;SDS011;46967;48.876;2.136;2024-02-21T00:22:16;10.75;;;3.33;;
61085;SDS011;46967;48.876;2.136;2024-02-21T00:24:42;9.95;;;3.50;;
61085;SDS011;46967;48.876;2.136;2024-02-21T00:27:07;10.50;;;3.60;;
61085;SDS011;46967;48.876;2.136;2024-02-21T00:29:32;11.45;;;4.30;;
61085;SDS011;46967;48.876;2.136;2024-02-21T00:31:59;12.07;;;3.90;;
61085;SDS011;46967;48.876;2.136;2024-02-21T00:34:24;9.90;;;3.55;;
61085;SDS011;46967;48.876;2.136;2024-02-21T00:36:50;10.80;;;3.70;;
61085;SDS011;46967;48.876;2.136;2024-02-21T00:39:15;11.65;;;3.63;;
61085;SDS011;46967;48.876;2.136;2024-02-21T00:41:40;10.85;;;3.38;;
61085;SDS011;46967;48.876;2.136;2024-02-21T00:44:06;12.68;;;3.95;;
61085;SDS011;46967;48.876;2.136;2024-02-21T00:46:31;12.15;;;3.67;;
61085;SDS011;46967;48.876;2.136;2024-02-21T00:48:56;9.63;;;3.95;;
61085;SDS011;46967;48.876;2.136;2024-02-21T00:51:22;11.48;;;3.38;;
61085;SDS011;46967;48.876;2.136;2024-02-21T00:53:47;12.27;;;4.45;;
61085;SDS011;46967;48.876;2.136;2024-02-21T00:56:12;14.63;;;3.63;;
61085;SDS011;46967;48.876;2.136;2024-02-21T00:58:38;9.05;;;3.55;;
61085;SDS011;46967;48.876;2.136;2024-02-21T01:01:03;16.05;;;3.88;;
61085;SDS011;46967;48.876;2.136;2024-02-21T01:03:28;8.32;;;3.50;;
61085;SDS011;46967;48.876;2.136;2024-02-21T01:05:54;14.52;;;4.43;;
61085;SDS011;46967;48.876;2.136;2024-02-21T01:08:19;12.13;;;4.90;;
61085;SDS011;46967;48.876;2.136;2024-02-21T01:10:44;13.40;;;4.32;;
61085;SDS011;46967;48.876;2.136;2024-02-21T01:13:09;9.90;;;4.15;;
61085;SDS011;46967;48.876;2.136;2024-02-21T01:15:35;9.75;;;3.45;;
61085;SDS011;46967;48.876;2.136;2024-02-21T01:18:00;10.75;;;3.90;;
61085;SDS011;46967;48.876;2.136;2024-02-21T01:20:26;11.00;;;3.35;;
61085;SDS011;46967;48.876;2.136;2024-02-21T01:22:51;12.80;;;3.70;;
61085;SDS011;46967;48.876;2.136;2024-02-21T01:25:17;15.35;;;3.63;;
61085;SDS011;46967;48.876;2.136;2024-02-21T01:27:42;11.27;;;3.78;;
61085;SDS011;46967;48.876;2.136;2024-02-21T01:30:08;10.63;;;3.33;;
61085;SDS011;46967;48.876;2.136;2024-02-21T01:32:35;7.80;;;3.13;;
61085;SDS011;46967;48.876;2.136;2024-02-21T01:35:00;10.95;;;3.42;;
61085;SDS011;46967;48.876;2.136;2024-02-21T01:37:26;9.15;;;2.97;;
61085;SDS011;46967;48.876;2.136;2024-02-21T01:39:51;11.65;;;3.70;;
61085;SDS011;46967;48.876;2.136;2024-02-21T01:42:17;8.88;;;3.33;;
61085;SDS011;46967;48.876;2.136;2024-02-21T01:44:43;8.98;;;3.15;;
61085;SDS011;46967;48.876;2.136;2024-02-21T01:47:08;10.55;;;3.60;;
61085;SDS011;46967;48.876;2.136;2024-02-21T01:49:33;10.15;;;3.15;;
61085;SDS011;46967;48.876;2.136;2024-02-21T01:51:59;10.57;;;3.35;;
61085;SDS011;46967;48.876;2.136;2024-02-21T01:54:25;9.82;;;3.63;;
61085;SDS011;46967;48.876;2.136;2024-02-21T01:56:53;11.45;;;3.10;;
61085;SDS011;46967;48.876;2.136;2024-02-21T01:59:19;10.88;;;3.70;;
61085;SDS011;46967;48.876;2.136;2024-02-21T02:01:46;12.70;;;3.67;;
61085;SDS011;46967;48.876;2.136;2024-02-21T02:04:12;11.70;;;3.20;;
61085;SDS011;46967;48.876;2.136;2024-02-21T02:06:38;11.60;;;3.28;;
61085;SDS011;46967;48.876;2.136;2024-02-21T02:09:04;8.82;;;3.53;;
61085;SDS011;46967;48.876;2.136;2024-02-21T02:11:31;12.30;;;3.85;;
61085;SDS011;46967;48.876;2.136;2024-02-21T02:13:57;8.82;;;3.20;;
61085;SDS011;46967;48.876;2.136;2024-02-21T02:16:22;13.52;;;3.80;;
61085;SDS011;46967;48.876;2.136;2024-02-21T02:18:47;10.82;;;3.90;;
61085;SDS011;46967;48.876;2.136;2024-02-21T02:21:14;10.48;;;3.50;;
61085;SDS011;46967;48.876;2.136;2024-02-21T02:23:47;10.27;;;3.30;;
61085;SDS011;46967;48.876;2.136;2024-02-21T02:26:13;7.85;;;3.33;;
61085;SDS011;46967;48.876;2.136;2024-02-21T02:28:38;12.52;;;3.53;;
61085;SDS011;46967;48.876;2.136;2024-02-21T02:31:03;11.27;;;3.60;;
61085;SDS011;46967;48.876;2.136;2024-02-21T02:33:29;8.40;;;3.17;;
61085;SDS011;46967;48.876;2.136;2024-02-21T02:35:54;11.95;;;3.63;;
61085;SDS011;46967;48.876;2.136;2024-02-21T02:38:19;10.55;;;3.53;;
61085;SDS011;46967;48.876;2.136;2024-02-21T02:40:45;10.07;;;3.92;;
61085;SDS011;46967;48.876;2.136;2024-02-21T02:43:10;9.93;;;3.40;;
61085;SDS011;46967;48.876;2.136;2024-02-21T02:45:35;11.10;;;3.63;;
61085;SDS011;46967;48.876;2.136;2024-02-21T02:48:01;10.52;;;3.63;;
61085;SDS011;46967;48.876;2.136;2024-02-21T02:50:27;13.95;;;3.72;;
61085;SDS011;46967;48.876;2.136;2024-02-21T02:52:53;11.35;;;3.55;;
61085;SDS011;46967;48.876;2.136;2024-02-21T02:55:19;12.88;;;3.60;;
61085;SDS011;46967;48.876;2.136;2024-02-21T02:57:45;9.70;;;3.50;;
61085;SDS011;46967;48.876;2.136;2024-02-21T03:00:11;11.88;;;4.05;;
61085;SDS011;46967;48.876;2.136;2024-02-21T03:02:38;14.38;;;3.70;;
61085;SDS011;46967;48.876;2.136;2024-02-21T03:05:11;13.05;;;3.85;;
61085;SDS011;46967;48.876;2.136;2024-02-21T03:07:40;10.77;;;4.03;;
61085;SDS011;46967;48.876;2.136;2024-02-21T03:10:06;10.13;;;3.80;;
61085;SDS011;46967;48.876;2.136;2024-02-21T03:12:31;11.85;;;3.70;;
61085;SDS011;46967;48.876;2.136;2024-02-21T03:14:57;8.23;;;3.53;;
61085;SDS011;46967;48.876;2.136;2024-02-21T03:17:22;14.00;;;4.32;;
61085;SDS011;46967;48.876;2.136;2024-02-21T03:19:48;9.98;;;3.78;;
61085;SDS011;46967;48.876;2.136;2024-02-21T03:22:14;8.68;;;4.00;;
61085;SDS011;46967;48.876;2.136;2024-02-21T03:24:40;15.32;;;4.32;;
61085;SDS011;46967;48.876;2.136;2024-02-21T03:27:06;14.85;;;4.32;;
61085;SDS011;46967;48.876;2.136;2024-02-21T03:29:31;9.57;;;3.90;;
61085;SDS011;46967;48.876;2.136;2024-02-21T03:31:57;8.73;;;4.07;;
61085;SDS011;46967;48.876;2.136;2024-02-21T03:34:22;12.98;;;4.05;;
61085;SDS011;46967;48.876;2.136;2024-02-21T03:36:47;10.40;;;3.90;;
61085;SDS011;46967;48.876;2.136;2024-02-21T03:39:12;8.20;;;3.55;;
61085;SDS011;46967;48.876;2.136;2024-02-21T03:41:38;10.63;;;4.30;;
61085;SDS011;46967;48.876;2.136;2024-02-21T03:44:03;12.40;;;3.90;;
61085;SDS011;46967;48.876;2.136;2024-02-21T03:46:30;10.60;;;3.70;;
61085;SDS011;46967;48.876;2.136;2024-02-21T03:48:56;11.07;;;3.70;;
61085;SDS011;46967;48.876;2.136;2024-02-21T03:51:22;10.73;;;3.72;;
61085;SDS011;46967;48.876;2.136;2024-02-21T03:53:47;10.10;;;3.80;;
61085;SDS011;46967;48.876;2.136;2024-02-21T03:56:12;8.90;;;3.42;;
61085;SDS011;46967;48.876;2.136;2024-02-21T03:58:38;10.77;;;4.05;;
61085;SDS011;46967;48.876;2.136;2024-02-21T04:01:03;8.82;;;3.90;;
61085;SDS011;46967;48.876;2.136;2024-02-21T04:03:29;10.60;;;4.05;;
61085;SDS011;46967;48.876;2.136;2024-02-21T04:05:55;10.43;;;4.28;;
61085;SDS011;46967;48.876;2.136;2024-02-21T04:08:21;8.32;;;3.97;;
61085;SDS011;46967;48.876;2.136;2024-02-21T04:10:47;11.57;;;4.47;;
61085;SDS011;46967;48.876;2.136;2024-02-21T04:13:12;8.55;;;3.80;;
61085;SDS011;46967;48.876;2.136;2024-02-21T04:15:37;13.07;;;4.30;;
61085;SDS011;46967;48.876;2.136;2024-02-21T04:18:03;11.52;;;4.35;;
61085;SDS011;46967;48.876;2.136;2024-02-21T04:20:28;10.25;;;4.07;;
61085;SDS011;46967;48.876;2.136;2024-02-21T04:22:54;8.02;;;3.80;;
61085;SDS011;46967;48.876;2.136;2024-02-21T04:25:20;9.00;;;3.75;;
61085;SDS011;46967;48.876;2.136;2024-02-21T04:27:45;10.45;;;3.95;;
61085;SDS011;46967;48.876;2.136;2024-02-21T04:30:11;9.38;;;4.03;;
61085;SDS011;46967;48.876;2.136;2024-02-21T04:32:37;11.05;;;4.20;;
61085;SDS011;46967;48.876;2.136;2024-02-21T04:35:03;8.60;;;3.80;;
61085;SDS011;46967;48.876;2.136;2024-02-21T04:37:28;10.20;;;3.90;;
61085;SDS011;46967;48.876;2.136;2024-02-21T04:39:54;11.48;;;4.45;;
61085;SDS011;46967;48.876;2.136;2024-02-21T04:42:19;10.90;;;4.25;;
61085;SDS011;46967;48.876;2.136;2024-02-21T04:44:44;10.70;;;3.85;;
61085;SDS011;46967;48.876;2.136;2024-02-21T04:47:10;12.32;;;3.90;;
61085;SDS011;46967;48.876;2.136;2024-02-21T04:49:35;11.38;;;3.95;;
61085;SDS011;46967;48.876;2.136;2024-02-21T04:52:01;12.07;;;4.00;;
61085;SDS011;46967;48.876;2.136;2024-02-21T04:54:26;8.50;;;3.97;;
61085;SDS011;46967;48.876;2.136;2024-02-21T04:56:52;9.27;;;4.28;;
61085;SDS011;46967;48.876;2.136;2024-02-21T04:59:17;11.30;;;4.63;;
61085;SDS011;46967;48.876;2.136;2024-02-21T05:01:43;13.50;;;3.90;;
61085;SDS011;46967;48.876;2.136;2024-02-21T05:04:08;9.45;;;4.40;;
61085;SDS011;46967;48.876;2.136;2024-02-21T05:06:40;12.27;;;4.15;;
61085;SDS011;46967;48.876;2.136;2024-02-21T05:09:06;11.95;;;4.97;;
61085;SDS011;46967;48.876;2.136;2024-02-21T05:11:33;10.00;;;4.13;;
61085;SDS011;46967;48.876;2.136;2024-02-21T05:13:59;9.15;;;4.30;;
61085;SDS011;46967;48.876;2.136;2024-02-21T05:16:24;11.95;;;4.72;;
61085;SDS011;46967;48.876;2.136;2024-02-21T05:18:50;9.15;;;4.28;;
61085;SDS011;46967;48.876;2.136;2024-02-21T05:21:15;9.80;;;4.32;;
61085;SDS011;46967;48.876;2.136;2024-02-21T05:23:40;9.93;;;3.88;;
61085;SDS011;46967;48.876;2.136;2024-02-21T05:26:06;8.90;;;4.22;;
61085;SDS011;46967;48.876;2.136;2024-02-21T05:28:31;8.52;;;4.07;;
61085;SDS011;46967;48.876;2.136;2024-02-21T05:30:57;10.73;;;4.45;;
61085;SDS011;46967;48.876;2.136;2024-02-21T05:33:22;11.55;;;4.57;;
61085;SDS011;46967;48.876;2.136;2024-02-21T05:35:48;8.00;;;4.43;;
61085;SDS011;46967;48.876;2.136;2024-02-21T05:38:13;10.05;;;4.05;;
61085;SDS011;46967;48.876;2.136;2024-02-21T05:40:39;9.45;;;4.90;;
61085;SDS011;46967;48.876;2.136;2024-02-21T05:43:05;10.02;;;4.30;;
61085;SDS011;46967;48.876;2.136;2024-02-21T05:45:30;8.63;;;4.43;;
61085;SDS011;46967;48.876;2.136;2024-02-21T05:47:55;6.70;;;4.53;;
61085;SDS011;46967;48.876;2.136;2024-02-21T05:50:22;13.32;;;4.80;;
61085;SDS011;46967;48.876;2.136;2024-02-21T05:52:48;10.13;;;4.47;;
61085;SDS011;46967;48.876;2.136;2024-02-21T05:55:16;11.20;;;4.40;;
61085;SDS011;46967;48.876;2.136;2024-02-21T05:57:41;9.85;;;4.55;;
61085;SDS011;46967;48.876;2.136;2024-02-21T06:00:07;11.93;;;4.60;;
61085;SDS011;46967;48.876;2.136;2024-02-21T06:02:32;8.55;;;3.88;;
61085;SDS011;46967;48.876;2.136;2024-02-21T06:04:58;7.97;;;4.05;;
61085;SDS011;46967;48.876;2.136;2024-02-21T06:07:23;10.38;;;4.40;;
61085;SDS011;46967;48.876;2.136;2024-02-21T06:09:48;10.90;;;4.38;;
61085;SDS011;46967;48.876;2.136;2024-02-21T06:12:14;7.50;;;4.40;;
61085;SDS011;46967;48.876;2.136;2024-02-21T06:14:39;10.43;;;4.70;;
61085;SDS011;46967;48.876;2.136;2024-02-21T06:17:04;11.93;;;4.15;;
61085;SDS011;46967;48.876;2.136;2024-02-21T06:19:30;7.93;;;3.75;;
61085;SDS011;46967;48.876;2.136;2024-02-21T06:21:55;10.25;;;4.57;;
61085;SDS011;46967;48.876;2.136;2024-02-21T06:24:20;11.30;;;4.75;;
61085;SDS011;46967;48.876;2.136;2024-02-21T06:26:46;9.35;;;3.88;;
61085;SDS011;46967;48.876;2.136;2024-02-21T06:29:12;8.80;;;3.95;;
61085;SDS011;46967;48.876;2.136;2024-02-21T06:31:38;10.07;;;4.38;;
61085;SDS011;46967;48.876;2.136;2024-02-21T06:34:05;9.02;;;4.30;;
61085;SDS011;46967;48.876;2.136;2024-02-21T06:36:30;11.57;;;4.43;;
61085;SDS011;46967;48.876;2.136;2024-02-21T06:38:55;8.98;;;4.03;;
61085;SDS011;46967;48.876;2.136;2024-02-21T06:41:21;10.25;;;4.30;;
61085;SDS011;46967;48.876;2.136;2024-02-21T06:43:46;10.27;;;4.95;;
61085;SDS011;46967;48.876;2.136;2024-02-21T06:46:22;9.43;;;4.18;;
61085;SDS011;46967;48.876;2.136;2024-02-21T06:48:53;6.10;;;3.83;;
61085;SDS011;46967;48.876;2.136;2024-02-21T06:51:21;9.07;;;3.83;;
61085;SDS011;46967;48.876;2.136;2024-02-21T06:53:47;6.60;;;3.50;;
61085;SDS011;46967;48.876;2.136;2024-02-21T06:56:12;10.73;;;3.95;;
61085;SDS011;46967;48.876;2.136;2024-02-21T06:58:37;9.77;;;4.10;;
61085;SDS011;46967;48.876;2.136;2024-02-21T07:01:03;8.25;;;3.90;;
61085;SDS011;46967;48.876;2.136;2024-02-21T07:03:28;12.77;;;3.85;;
61085;SDS011;46967;48.876;2.136;2024-02-21T07:05:53;7.35;;;3.53;;
61085;SDS011;46967;48.876;2.136;2024-02-21T07:08:19;8.98;;;3.70;;
61085;SDS011;46967;48.876;2.136;2024-02-21T07:10:44;7.05;;;3.65;;
61085;SDS011;46967;48.876;2.136;2024-02-21T07:13:09;8.85;;;3.58;;
61085;SDS011;46967;48.876;2.136;2024-02-21T07:15:35;9.23;;;3.05;;
61085;SDS011;46967;48.876;2.136;2024-02-21T07:18:01;11.77;;;3.58;;
61085;SDS011;46967;48.876;2.136;2024-02-21T07:20:27;9.32;;;3.22;;
61085;SDS011;46967;48.876;2.136;2024-02-21T07:22:52;7.55;;;3.35;;
61085;SDS011;46967;48.876;2.136;2024-02-21T07:25:18;9.25;;;2.97;;
61085;SDS011;46967;48.876;2.136;2024-02-21T07:27:44;10.93;;;3.40;;
61085;SDS011;46967;48.876;2.136;2024-02-21T07:30:09;6.97;;;3.03;;
61085;SDS011;46967;48.876;2.136;2024-02-21T07:32:35;6.63;;;3.00;;
61085;SDS011;46967;48.876;2.136;2024-02-21T07:35:00;8.45;;;3.05;;
61085;SDS011;46967;48.876;2.136;2024-02-21T07:37:25;5.93;;;2.70;;
61085;SDS011;46967;48.876;2.136;2024-02-21T07:39:51;8.35;;;3.03;;
61085;SDS011;46967;48.876;2.136;2024-02-21T07:42:16;8.35;;;3.35;;
61085;SDS011;46967;48.876;2.136;2024-02-21T07:44:42;7.25;;;2.85;;
61085;SDS011;46967;48.876;2.136;2024-02-21T07:47:07;6.75;;;2.63;;
61085;SDS011;46967;48.876;2.136;2024-02-21T07:49:32;8.10;;;2.85;;
61085;SDS011;46967;48.876;2.136;2024-02-21T07:52:00;7.18;;;2.92;;
61085;SDS011;46967;48.876;2.136;2024-02-21T07:54:26;7.55;;;3.33;;
61085;SDS011;46967;48.876;2.136;2024-02-21T07:56:51;7.40;;;3.25;;
61085;SDS011;46967;48.876;2.136;2024-02-21T07:59:16;5.20;;;2.70;;
61085;SDS011;46967;48.876;2.136;2024-02-21T08:01:42;8.57;;;2.47;;
61085;SDS011;46967;48.876;2.136;2024-02-21T08:04:09;5.20;;;2.60;;
61085;SDS011;46967;48.876;2.136;2024-02-21T08:06:35;5.18;;;2.78;;
61085;SDS011;46967;48.876;2.136;2024-02-21T08:09:00;8.02;;;2.78;;
61085;SDS011;46967;48.876;2.136;2024-02-21T08:11:25;8.95;;;3.33;;
61085;SDS011;46967;48.876;2.136;2024-02-21T08:13:51;11.05;;;2.90;;
61085;SDS011;46967;48.876;2.136;2024-02-21T08:16:16;6.00;;;2.88;;
61085;SDS011;46967;48.876;2.136;2024-02-21T08:18:43;6.18;;;2.97;;
61085;SDS011;46967;48.876;2.136;2024-02-21T08:21:09;9.52;;;2.72;;
61085;SDS011;46967;48.876;2.136;2024-02-21T08:23:34;7.97;;;3.20;;
61085;SDS011;46967;48.876;2.136;2024-02-21T08:26:02;8.30;;;3.15;;
61085;SDS011;46967;48.876;2.136;2024-02-21T08:28:28;7.97;;;3.00;;
61085;SDS011;46967;48.876;2.136;2024-02-21T08:30:53;9.18;;;3.25;;
61085;SDS011;46967;48.876;2.136;2024-02-21T08:33:19;6.97;;;2.85;;
61085;SDS011;46967;48.876;2.136;2024-02-21T08:35:49;6.63;;;3.30;;
61085;SDS011;46967;48.876;2.136;2024-02-21T08:38:14;7.45;;;3.20;;
61085;SDS011;46967;48.876;2.136;2024-02-21T08:40:40;8.60;;;3.20;;
61085;SDS011;46967;48.876;2.136;2024-02-21T08:43:05;7.68;;;3.28;;
61085;SDS011;46967;48.876;2.136;2024-02-21T08:45:30;7.28;;;3.35;;
61085;SDS011;46967;48.876;2.136;2024-02-21T08:47:56;6.40;;;3.13;;
61085;SDS011;46967;48.876;2.136;2024-02-21T08:50:21;7.63;;;3.30;;
61085;SDS011;46967;48.876;2.136;2024-02-21T08:52:46;7.80;;;3.03;;
61085;SDS011;46967;48.876;2.136;2024-02-21T08:55:12;7.18;;;3.03;;
61085;SDS011;46967;48.876;2.136;2024-02-21T08:57:37;6.45;;;2.53;;
61085;SDS011;46967;48.876;2.136;2024-02-21T09:00:03;7.38;;;3.17;;
61085;SDS011;46967;48.876;2.136;2024-02-21T09:02:34;5.70;;;2.95;;
61085;SDS011;46967;48.876;2.136;2024-02-21T09:05:05;9.82;;;2.80;;
61085;SDS011;46967;48.876;2.136;2024-02-21T09:07:30;5.00;;;2.47;;
61085;SDS011;46967;48.876;2.136;2024-02-21T09:09:56;9.63;;;2.92;;
61085;SDS011;46967;48.876;2.136;2024-02-21T09:12:21;7.53;;;3.10;;
61085;SDS011;46967;48.876;2.136;2024-02-21T09:14:47;5.57;;;2.60;;
61085;SDS011;46967;48.876;2.136;2024-02-21T09:17:15;5.78;;;2.60;;
61085;SDS011;46967;48.876;2.136;2024-02-21T09:19:42;7.70;;;3.42;;
61085;SDS011;46967;48.876;2.136;2024-02-21T09:22:07;4.50;;;2.60;;
61085;SDS011;46967;48.876;2.136;2024-02-21T09:24:33;7.28;;;3.33;;
61085;SDS011;46967;48.876;2.136;2024-02-21T09:26:58;4.85;;;2.60;;
61085;SDS011;46967;48.876;2.136;2024-02-21T09:29:25;8.80;;;2.92;;
61085;SDS011;46967;48.876;2.136;2024-02-21T09:31:50;9.13;;;2.80;;
61085;SDS011;46967;48.876;2.136;2024-02-21T09:34:16;7.63;;;2.75;;
61085;SDS011;46967;48.876;2.136;2024-02-21T09:36:41;10.43;;;3.00;;
61085;SDS011;46967;48.876;2.136;2024-02-21T09:39:07;7.00;;;2.90;;
61085;SDS011;46967;48.876;2.136;2024-02-21T09:41:32;13.18;;;3.10;;
61085;SDS011;46967;48.876;2.136;2024-02-21T09:44:04;6.60;;;2.53;;
61085;SDS011;46967;48.876;2.136;2024-02-21T09:49:34;6.80;;;2.53;;
61085;SDS011;46967;48.876;2.136;2024-02-21T09:51:59;7.00;;;2.53;;
61085;SDS011;46967;48.876;2.136;2024-02-21T09:56:53;6.25;;;3.00;;
61085;SDS011;46967;48.876;2.136;2024-02-21T09:59:18;7.70;;;2.33;;
61085;SDS011;46967;48.876;2.136;2024-02-21T10:01:44;5.78;;;2.70;;
61085;SDS011;46967;48.876;2.136;2024-02-21T10:04:09;4.85;;;2.53;;
61085;SDS011;46967;48.876;2.136;2024-02-21T10:06:35;9.05;;;2.53;;
61085;SDS011;46967;48.876;2.136;2024-02-21T10:09:02;5.63;;;2.22;;
61085;SDS011;46967;48.876;2.136;2024-02-21T10:11:28;5.13;;;2.22;;
61085;SDS011;46967;48.876;2.136;2024-02-21T10:14:03;7.22;;;2.40;;
61085;SDS011;46967;48.876;2.136;2024-02-21T10:16:32;8.60;;;2.70;;
61085;SDS011;46967;48.876;2.136;2024-02-21T10:18:58;6.97;;;2.78;;
61085;SDS011;46967;48.876;2.136;2024-02-21T10:21:24;8.95;;;2.30;;
61085;SDS011;46967;48.876;2.136;2024-02-21T10:23:49;8.82;;;2.75;;
61085;SDS011;46967;48.876;2.136;2024-02-21T10:26:16;6.50;;;3.05;;
61085;SDS011;46967;48.876;2.136;2024-02-21T10:28:43;11.55;;;2.65;;
61085;SDS011;46967;48.876;2.136;2024-02-21T10:31:10;6.55;;;2.33;;
61085;SDS011;46967;48.876;2.136;2024-02-21T10:33:37;5.85;;;2.50;;
61085;SDS011;46967;48.876;2.136;2024-02-21T10:36:09;5.45;;;2.30;;
61085;SDS011;46967;48.876;2.136;2024-02-21T10:38:36;6.63;;;2.40;;
61085;SDS011;46967;48.876;2.136;2024-02-21T10:41:02;7.93;;;2.58;;
61085;SDS011;46967;48.876;2.136;2024-02-21T10:43:30;7.28;;;2.65;;
61085;SDS011;46967;48.876;2.136;2024-02-21T10:46:02;6.30;;;2.20;;
61085;SDS011;46967;48.876;2.136;2024-02-21T10:48:33;6.15;;;2.30;;
61085;SDS011;46967;48.876;2.136;2024-02-21T10:51:16;7.40;;;2.78;;
61085;SDS011;46967;48.876;2.136;2024-02-21T10:56:35;7.22;;;2.58;;
61085;SDS011;46967;48.876;2.136;2024-02-21T10:59:06;7.45;;;2.78;;
61085;SDS011;46967;48.876;2.136;2024-02-21T11:01:33;7.78;;;2.78;;
61085;SDS011;46967;48.876;2.136;2024-02-21T11:04:04;7.30;;;2.67;;
61085;SDS011;46967;48.876;2.136;2024-02-21T11:06:31;5.57;;;2.20;;
61085;SDS011;46967;48.876;2.136;2024-02-21T11:09:02;8.73;;;2.47;;
61085;SDS011;46967;48.876;2.136;2024-02-21T11:11:28;11.63;;;2.60;;
61085;SDS011;46967;48.876;2.136;2024-02-21T11:14:07;6.38;;;2.40;;
61085;SDS011;46967;48.876;2.136;2024-02-21T11:16:41;7.05;;;2.13;;
61085;SDS011;46967;48.876;2.136;2024-02-21T11:19:08;9.93;;;2.20;;
61085;SDS011;46967;48.876;2.136;2024-02-21T11:21:37;4.72;;;1.85;;
61085;SDS011;46967;48.876;2.136;2024-02-21T11:24:03;7.03;;;2.40;;
61085;SDS011;46967;48.876;2.136;2024-02-21T11:26:29;5.50;;;2.50;;
61085;SDS011;46967;48.876;2.136;2024-02-21T11:29:05;4.68;;;2.08;;
61085;SDS011;46967;48.876;2.136;2024-02-21T11:31:43;7.93;;;2.17;;
61085;SDS011;46967;48.876;2.136;2024-02-21T11:34:12;4.93;;;1.90;;
61085;SDS011;46967;48.876;2.136;2024-02-21T11:36:51;9.73;;;2.20;;
61085;SDS011;46967;48.876;2.136;2024-02-21T11:39:26;3.83;;;1.65;;
61085;SDS011;46967;48.876;2.136;2024-02-21T11:42:04;5.10;;;1.92;;
61085;SDS011;46967;48.876;2.136;2024-02-21T11:44:32;5.53;;;2.00;;
61085;SDS011;46967;48.876;2.136;2024-02-21T11:46:59;9.63;;;2.60;;
61085;SDS011;46967;48.876;2.136;2024-02-21T11:49:25;5.95;;;2.22;;
61085;SDS011;46967;48.876;2.136;2024-02-21T11:52:01;4.80;;;2.28;;
61085;SDS011;46967;48.876;2.136;2024-02-21T11:54:29;5.03;;;2.28;;
61085;SDS011;46967;48.876;2.136;2024-02-21T11:56:57;5.43;;;1.88;;
61085;SDS011;46967;48.876;2.136;2024-02-21T11:59:22;5.55;;;2.05;;
61085;SDS011;46967;48.876;2.136;2024-02-21T12:01:48;6.97;;;2.22;;
61085;SDS011;46967;48.876;2.136;2024-02-21T12:04:13;3.53;;;1.77;;
61085;SDS011;46967;48.876;2.136;2024-02-21T12:06:39;8.25;;;2.20;;
61085;SDS011;46967;48.876;2.136;2024-02-21T12:09:07;5.78;;;2.35;;
61085;SDS011;46967;48.876;2.136;2024-02-21T12:11:35;6.88;;;2.00;;
61085;SDS011;46967;48.876;2.136;2024-02-21T12:14:01;5.20;;;2.17;;
61085;SDS011;46967;48.876;2.136;2024-02-21T12:16:35;6.20;;;2.97;;
61085;SDS011;46967;48.876;2.136;2024-02-21T12:19:03;3.85;;;1.70;;
61085;SDS011;46967;48.876;2.136;2024-02-21T12:21:30;5.72;;;2.20;;
61085;SDS011;46967;48.876;2.136;2024-02-21T12:23:57;12.35;;;3.20;;
61085;SDS011;46967;48.876;2.136;2024-02-21T12:26:23;8.23;;;2.90;;
61085;SDS011;46967;48.876;2.136;2024-02-21T12:28:49;6.25;;;2.00;;
61085;SDS011;46967;48.876;2.136;2024-02-21T12:31:14;6.60;;;2.20;;
61085;SDS011;46967;48.876;2.136;2024-02-21T12:33:41;6.05;;;2.30;;
61085;SDS011;46967;48.876;2.136;2024-02-21T12:36:07;4.65;;;1.73;;
61085;SDS011;46967;48.876;2.136;2024-02-21T12:38:33;8.75;;;2.35;;
61085;SDS011;46967;48.876;2.136;2024-02-21T12:40:59;5.68;;;2.20;;
61085;SDS011;46967;48.876;2.136;2024-02-21T12:43:25;6.35;;;2.50;;
61085;SDS011;46967;48.876;2.136;2024-02-21T12:45:51;5.53;;;2.10;;
61085;SDS011;46967;48.876;2.136;2024-02-21T12:48:16;5.88;;;1.90;;
61085;SDS011;46967;48.876;2.136;2024-02-21T12:50:47;4.75;;;2.15;;
61085;SDS011;46967;48.876;2.136;2024-02-21T12:53:15;8.80;;;2.60;;
61085;SDS011;46967;48.876;2.136;2024-02-21T12:55:41;5.15;;;1.85;;
61085;SDS011;46967;48.876;2.136;2024-02-21T12:58:06;6.75;;;2.88;;
61085;SDS011;46967;48.876;2.136;2024-02-21T13:00:32;6.78;;;2.28;;
61085;SDS011;46967;48.876;2.136;2024-02-21T13:02:57;12.68;;;2.50;;
61085;SDS011;46967;48.876;2.136;2024-02-21T13:05:23;9.02;;;2.80;;
61085;SDS011;46967;48.876;2.136;2024-02-21T13:07:48;6.88;;;2.33;;
61085;SDS011;46967;48.876;2.136;2024-02-21T13:10:14;6.72;;;2.67;;
61085;SDS011;46967;48.876;2.136;2024-02-21T13:12:39;7.30;;;2.63;;
61085;SDS011;46967;48.876;2.136;2024-02-21T13:15:05;10.15;;;2.63;;
61085;SDS011;46967;48.876;2.136;2024-02-21T13:17:31;10.18;;;2.60;;
61085;SDS011;46967;48.876;2.136;2024-02-21T13:19:56;8.00;;;2.92;;
61085;SDS011;46967;48.876;2.136;2024-02-21T13:22:22;9.45;;;3.88;;
61085;SDS011;46967;48.876;2.136;2024-02-21T13:24:50;6.78;;;2.92;;
61085;SDS011;46967;48.876;2.136;2024-02-21T13:27:16;8.88;;;3.05;;
61085;SDS011;46967;48.876;2.136;2024-02-21T13:29:41;8.27;;;2.90;;
61085;SDS011;46967;48.876;2.136;2024-02-21T13:32:07;10.10;;;3.25;;
61085;SDS011;46967;48.876;2.136;2024-02-21T13:34:32;6.43;;;3.45;;
61085;SDS011;46967;48.876;2.136;2024-02-21T13:36:57;6.97;;;3.03;;
61085;SDS011;46967;48.876;2.136;2024-02-21T13:39:24;7.15;;;2.72;;
61085;SDS011;46967;48.876;2.136;2024-02-21T13:41:50;9.00;;;3.25;;
61085;SDS011;46967;48.876;2.136;2024-02-21T13:44:16;7.22;;;2.97;;
61085;SDS011;46967;48.876;2.136;2024-02-21T13:46:41;5.45;;;3.13;;
61085;SDS011;46967;48.876;2.136;2024-02-21T13:49:07;10.05;;;3.40;;
61085;SDS011;46967;48.876;2.136;2024-02-21T13:51:34;9.43;;;3.58;;
61085;SDS011;46967;48.876;2.136;2024-02-21T13:54:02;5.45;;;3.08;;
61085;SDS011;46967;48.876;2.136;2024-02-21T13:56:34;9.38;;;3.58;;
61085;SDS011;46967;48.876;2.136;2024-02-21T13:58:59;5.05;;;3.13;;
61085;SDS011;46967;48.876;2.136;2024-02-21T14:01:25;6.25;;;3.35;;
61085;SDS011;46967;48.876;2.136;2024-02-21T14:03:53;4.70;;;2.90;;
61085;SDS011;46967;48.876;2.136;2024-02-21T14:06:18;5.55;;;2.90;;
61085;SDS011;46967;48.876;2.136;2024-02-21T14:08:43;5.05;;;3.50;;
61085;SDS011;46967;48.876;2.136;2024-02-21T14:11:09;7.00;;;3.10;;
61085;SDS011;46967;48.876;2.136;2024-02-21T14:13:34;8.40;;;3.45;;
61085;SDS011;46967;48.876;2.136;2024-02-21T14:16:00;8.30;;;3.40;;
61085;SDS011;46967;48.876;2.136;2024-02-21T14:18:25;7.82;;;3.95;;
61085;SDS011;46967;48.876;2.136;2024-02-21T14:20:50;7.53;;;3.40;;
61085;SDS011;46967;48.876;2.136;2024-02-21T14:23:15;8.00;;;3.70;;
61085;SDS011;46967;48.876;2.136;2024-02-21T14:25:41;7.72;;;3.05;;
61085;SDS011;46967;48.876;2.136;2024-02-21T14:28:07;9.48;;;4.03;;
61085;SDS011;46967;48.876;2.136;2024-02-21T14:30:34;4.95;;;3.00;;
61085;SDS011;46967;48.876;2.136;2024-02-21T14:33:00;7.28;;;3.40;;
61085;SDS011;46967;48.876;2.136;2024-02-21T14:35:25;8.25;;;3.65;;
61085;SDS011;46967;48.876;2.136;2024-02-21T14:37:50;6.97;;;4.18;;
61085;SDS011;46967;48.876;2.136;2024-02-21T14:40:17;7.90;;;3.80;;
61085;SDS011;46967;48.876;2.136;2024-02-21T14:42:44;8.18;;;3.85;;
61085;SDS011;46967;48.876;2.136;2024-02-21T14:45:09;6.10;;;3.35;;